Time;durP1;ratioP1;P1;durP2;ratioP2;P2;SDS_P1;SDS_P2;PMS_P1;PMS_P2;Temp;Humidity;BMP_temperature;BMP_pressure;BME280_temperature;BME280_humidity;BME280_pressure;Samples;Min_cycle;Max_cycle;Signal;HPM_P1;HPM_P2
2021/03/10 00:01:58;;;;;;;22.60;13.30;;;;;;;-1.50;72.93;99623.75;4921940;29;20325;-88
2021/03/10 00:04:44;;;;;;;21.17;13.30;;;;;;;-1.60;72.45;99605.41;4921825;29;20626;-85
2021/03/10 00:07:27;;;;;;;20.87;13.30;;;;;;;-1.37;71.80;99634.78;4908332;29;20238;-92
2021/03/10 00:10:14;;;;;;;20.27;13.33;;;;;;;-1.47;71.70;99608.53;4904699;29;20240;-86
2021/03/10 00:13:01;;;;;;;19.93;13.70;;;;;;;-1.38;72.35;99618.19;4922000;29;20572;-93
2021/03/10 00:15:42;;;;;;;23.03;14.43;;;;;;;-1.31;72.57;99625.50;4921838;29;20234;-88
2021/03/10 00:18:28;;;;;;;18.43;13.63;;;;;;;-1.44;72.17;99612.66;4906405;29;20289;-92
2021/03/10 00:21:21;;;;;;;19.63;13.37;;;;;;;-1.30;73.03;99635.84;4921086;29;20229;-91
2021/03/10 00:24:16;;;;;;;18.67;13.27;;;;;;;-1.43;73.30;99620.41;4921089;29;20237;-89
2021/03/10 00:27:07;;;;;;;25.13;16.97;;;;;;;-1.32;72.88;99632.56;4906186;29;20238;-88
2021/03/10 00:29:45;;;;;;;28.20;20.93;;;;;;;-1.45;72.44;99618.91;4921608;29;20218;-90
2021/03/10 00:32:38;;;;;;;29.53;20.63;;;;;;;-1.37;72.99;99626.91;4921082;29;20226;-90
2021/03/10 00:35:42;;;;;;;25.60;18.40;;;;;;;-1.38;72.94;99623.44;4908611;29;20654;-88
2021/03/10 00:38:20;;;;;;;21.93;16.00;;;;;;;-1.27;73.35;99638.22;4904390;29;20232;-87
2021/03/10 00:41:10;;;;;;;23.00;15.67;;;;;;;-1.24;73.14;99637.06;4922123;29;20268;-91
2021/03/10 00:44:01;;;;;;;22.17;14.23;;;;;;;-1.30;72.45;99637.66;4886550;29;20234;-88
2021/03/10 00:46:46;;;;;;;21.23;14.23;;;;;;;-1.22;72.16;99629.88;4902929;29;20259;-89
2021/03/10 00:49:36;;;;;;;23.50;14.27;;;;;;;-1.26;71.46;99623.25;4920220;29;20518;-91
2021/03/10 00:52:26;;;;;;;19.80;13.67;;;;;;;-1.30;71.76;99609.56;4907366;29;20233;-86
2021/03/10 00:55:19;;;;;;;19.90;13.63;;;;;;;-1.26;72.53;99612.75;4907073;29;20317;-93
2021/03/10 00:57:57;;;;;;;19.93;13.47;;;;;;;-1.23;72.98;99615.06;4906281;29;20230;-87
2021/03/10 01:00:52;;;;;;;20.40;13.37;;;;;;;-1.24;72.54;99623.94;4925839;29;20236;-91
2021/03/10 01:03:49;;;;;;;19.37;13.23;;;;;;;-1.24;72.64;99619.50;4926004;29;20245;-89
2021/03/10 01:06:33;;;;;;;20.70;13.30;;;;;;;-1.26;73.16;99613.56;4925070;29;20647;-92
2021/03/10 01:09:26;;;;;;;22.27;13.50;;;;;;;-1.17;73.91;99615.34;4911947;29;20535;-88
2021/03/10 01:12:09;;;;;;;20.57;13.83;;;;;;;-1.25;73.71;99612.59;4905627;29;20237;-89
2021/03/10 01:14:57;;;;;;;20.70;14.13;;;;;;;-1.28;73.12;99606.78;4921340;29;20634;-92
2021/03/10 01:17:50;;;;;;;21.87;13.90;;;;;;;-1.19;73.31;99614.66;4925230;29;20629;-85
2021/03/10 01:20:42;;;;;;;18.87;13.50;;;;;;;-1.47;73.42;99573.53;4901755;29;20286;-85
2021/03/10 01:23:31;;;;;;;18.27;13.60;;;;;;;-1.17;73.89;99628.50;4895699;29;20284;-90
2021/03/10 01:26:17;;;;;;;21.00;13.77;;;;;;;-1.21;73.62;99618.41;4926474;29;20533;-81
2021/03/10 01:29:04;;;;;;;19.93;13.50;;;;;;;-1.16;73.92;99618.78;4933896;29;20234;-85
2021/03/10 01:32:01;;;;;;;19.57;14.03;;;;;;;-1.16;74.00;99600.38;4926719;29;20206;-88
2021/03/10 01:34:50;;;;;;;21.63;13.83;;;;;;;-1.11;73.64;99611.28;4923294;29;20759;-86
2021/03/10 01:37:44;;;;;;;19.60;13.57;;;;;;;-1.44;73.67;99553.03;4931707;29;20255;-87
2021/03/10 01:40:43;;;;;;;19.77;13.97;;;;;;;-1.11;73.79;99595.50;4910828;29;20233;-83
2021/03/10 01:43:32;;;;;;;20.33;14.27;;;;;;;-1.09;73.65;99602.28;4901672;29;20239;-83
2021/03/10 01:46:19;;;;;;;19.47;13.63;;;;;;;-1.07;73.89;99589.81;4937181;29;20230;-82
2021/03/10 01:49:10;;;;;;;21.00;13.50;;;;;;;-1.02;74.00;99594.63;4937764;29;20257;-81
2021/03/10 01:52:07;;;;;;;18.70;13.53;;;;;;;-1.25;73.25;99554.75;4935358;29;20233;-84
2021/03/10 01:54:56;;;;;;;20.93;14.03;;;;;;;-1.05;74.22;99573.88;4934109;29;20225;-91
2021/03/10 01:57:46;;;;;;;19.87;13.27;;;;;;;-1.04;73.93;99586.06;4914962;29;20260;-85
2021/03/10 02:00:34;;;;;;;17.63;13.63;;;;;;;-0.97;73.63;99592.38;4923834;29;20237;-85
2021/03/10 02:03:27;;;;;;;20.43;13.97;;;;;;;-1.09;73.53;99583.03;4929011;29;20648;-90
2021/03/10 02:06:32;;;;;;;18.43;13.40;;;;;;;-1.01;73.87;99602.38;4925781;29;20230;-85
2021/03/10 02:09:45;;;;;;;20.50;14.27;;;;;;;-1.19;73.14;99587.53;4918479;29;20292;-84
2021/03/10 02:12:51;;;;;;;19.33;13.80;;;;;;;-1.05;73.12;99608.91;4940511;29;20525;-82
2021/03/10 02:15:58;;;;;;;18.00;13.43;;;;;;;-1.07;73.22;99597.69;4939668;29;20225;-90
2021/03/10 02:19:07;;;;;;;20.03;13.87;;;;;;;-1.21;73.24;99573.72;4939536;29;20225;-88
2021/03/10 02:22:27;;;;;;;20.23;13.23;;;;;;;-1.14;73.45;99583.50;4938711;29;20229;-85
2021/03/10 02:25:51;;;;;;;21.73;14.20;;;;;;;-1.24;73.21;99568.72;4937962;29;20240;-91
2021/03/10 02:28:46;;;;;;;19.70;13.60;;;;;;;-1.15;73.20;99581.81;4937900;29;20629;-89
2021/03/10 02:31:40;;;;;;;20.83;13.47;;;;;;;-1.18;73.64;99584.75;4921505;29;20234;-85
2021/03/10 02:34:36;;;;;;;18.80;14.03;;;;;;;-1.09;74.06;99585.69;4925341;29;20272;-84
2021/03/10 02:37:25;;;;;;;20.10;14.00;;;;;;;-1.04;74.29;99581.63;4942668;29;20510;-89
2021/03/10 02:40:24;;;;;;;21.53;15.13;;;;;;;-1.09;74.60;99577.78;4942463;29;20390;-90
2021/03/10 02:43:08;;;;;;;21.03;14.63;;;;;;;-1.12;74.55;99573.63;4939333;29;20233;-91
2021/03/10 02:46:03;;;;;;;21.60;14.17;;;;;;;-1.05;74.48;99582.59;4939763;29;20706;-91
2021/03/10 02:48:53;;;;;;;22.50;14.00;;;;;;;-1.01;74.49;99581.34;4925637;29;20229;-90
2021/03/10 02:51:48;;;;;;;22.03;14.33;;;;;;;-0.99;75.18;99584.66;4921901;29;20305;-88
2021/03/10 02:54:44;;;;;;;22.43;14.63;;;;;;;-1.10;74.96;99573.50;4923222;29;20233;-90
2021/03/10 02:57:39;;;;;;;24.70;13.77;;;;;;;-1.26;74.25;99560.97;4941307;29;20288;-85
2021/03/10 03:00:31;;;;;;;21.23;14.37;;;;;;;-1.17;74.41;99572.44;4930348;29;20292;-91
2021/03/10 03:03:26;;;;;;;20.30;14.97;;;;;;;-1.02;74.18;99599.88;4921679;29;20233;-93
2021/03/10 03:06:17;;;;;;;22.70;14.40;;;;;;;-1.11;74.38;99596.34;4917412;29;20677;-91
2021/03/10 03:09:05;;;;;;;19.50;14.47;;;;;;;-1.16;75.04;99595.94;4940287;29;20229;-89
2021/03/10 03:11:50;;;;;;;21.57;14.87;;;;;;;-1.15;74.94;99587.09;4923023;29;20308;-88
2021/03/10 03:14:46;;;;;;;16.97;13.57;;;;;;;-1.16;74.93;99589.84;4875022;29;20226;-93
2021/03/10 03:17:39;;;;;;;21.87;14.43;;;;;;;-1.15;74.39;99594.97;4888630;29;20230;-93
2021/03/10 03:20:33;;;;;;;20.33;13.53;;;;;;;-1.17;74.38;99590.84;4924494;29;20237;-92
2021/03/10 03:23:29;;;;;;;21.50;14.00;;;;;;;-1.13;74.78;99589.56;4924627;29;20233;-88
2021/03/10 03:26:15;;;;;;;20.07;14.10;;;;;;;-1.13;75.19;99594.84;4897265;29;20225;-93
2021/03/10 03:29:03;;;;;;;20.97;14.40;;;;;;;-0.99;74.99;99612.75;4921655;29;20250;-91
2021/03/10 03:31:56;;;;;;;19.27;13.93;;;;;;;-1.11;75.62;99600.75;4910011;29;20237;-84
2021/03/10 03:34:53;;;;;;;20.93;13.60;;;;;;;-0.96;75.87;99610.66;4908732;29;20308;-85
2021/03/10 03:37:57;;;;;;;21.77;13.73;;;;;;;-1.09;75.45;99597.03;4888301;29;20231;-86
2021/03/10 03:41:00;;;;;;;19.33;13.70;;;;;;;-1.17;75.21;99596.94;4896376;29;20233;-89
2021/03/10 03:43:46;;;;;;;21.20;14.43;;;;;;;-1.14;75.17;99611.56;4937807;29;20252;-88
2021/03/10 03:46:40;;;;;;;20.03;14.33;;;;;;;-1.15;75.57;99600.22;4912911;29;20229;-90
2021/03/10 03:49:28;;;;;;;23.03;14.53;;;;;;;-1.19;75.10;99609.38;4904731;29;20232;-90
2021/03/10 03:52:12;;;;;;;21.23;14.03;;;;;;;-1.30;76.09;99600.84;4933130;29;20225;-93
2021/03/10 03:55:01;;;;;;;20.70;13.83;;;;;;;-1.31;76.12;99597.41;4910419;29;20566;-86
2021/03/10 03:58:05;;;;;;;21.30;13.67;;;;;;;-1.15;76.56;99612.53;4902628;29;20239;-90
2021/03/10 04:01:01;;;;;;;19.43;13.63;;;;;;;-1.10;76.48;99633.97;4909757;29;20228;-88
2021/03/10 04:04:01;;;;;;;23.57;15.30;;;;;;;-1.13;77.30;99602.72;4941394;29;20657;-92
2021/03/10 04:06:55;;;;;;;23.47;14.50;;;;;;;-1.20;77.32;99612.16;4940440;29;20251;-90
2021/03/10 04:09:46;;;;;;;23.43;15.73;;;;;;;-1.30;77.01;99587.69;4941439;29;20225;-93
2021/03/10 04:12:36;;;;;;;27.00;16.83;;;;;;;-1.21;77.11;99597.38;4942467;29;20225;-91
2021/03/10 04:15:34;;;;;;;29.93;17.27;;;;;;;-1.04;76.77;99622.88;4942921;29;20233;-88
2021/03/10 04:18:27;;;;;;;28.17;17.47;;;;;;;-1.04;76.80;99630.78;4929392;29;20233;-91
2021/03/10 04:21:23;;;;;;;32.20;18.90;;;;;;;-1.03;77.07;99616.66;4925871;29;20261;-92
2021/03/10 04:24:21;;;;;;;32.13;19.70;;;;;;;-0.91;77.15;99626.81;4926015;29;20234;-86
2021/03/10 04:27:15;;;;;;;38.53;21.90;;;;;;;-0.95;76.77;99619.38;4924910;29;20534;-92
2021/03/10 04:30:02;;;;;;;52.47;29.63;;;;;;;-1.00;76.12;99614.56;4919624;29;20250;-89
2021/03/10 04:32:56;;;;;;;66.57;33.53;;;;;;;-1.03;75.68;99609.59;4947340;29;20653;-91
2021/03/10 04:35:39;;;;;;;58.77;33.37;;;;;;;-1.08;75.97;99613.63;4949373;29;20229;-88
2021/03/10 04:38:45;;;;;;;45.43;24.63;;;;;;;-0.92;75.89;99622.53;4928644;29;20514;-85
2021/03/10 04:41:40;;;;;;;31.50;17.40;;;;;;;-0.97;74.97;99623.94;4930558;29;20233;-88
2021/03/10 04:44:29;;;;;;;22.97;14.90;;;;;;;-1.08;75.12;99605.75;4926846;29;20566;-85
2021/03/10 04:47:17;;;;;;;20.27;14.17;;;;;;;-1.01;75.19;99618.16;4935274;29;20228;-89
2021/03/10 04:50:12;;;;;;;22.10;15.13;;;;;;;-1.03;76.47;99619.28;4943877;29;20285;-80
2021/03/10 04:53:09;;;;;;;21.57;14.50;;;;;;;-0.99;75.33;99634.63;4945372;29;20316;-84
2021/03/10 04:55:57;;;;;;;24.20;15.17;;;;;;;-0.98;75.80;99638.88;4940850;29;20236;-87
2021/03/10 04:58:53;;;;;;;22.63;14.67;;;;;;;-1.06;76.07;99623.03;4935745;29;20234;-89
2021/03/10 05:01:48;;;;;;;20.10;14.40;;;;;;;-1.05;76.13;99627.31;4923557;29;20234;-90
2021/03/10 05:04:38;;;;;;;23.10;15.27;;;;;;;-0.98;77.23;99631.00;4921615;29;20630;-91
2021/03/10 05:07:35;;;;;;;20.80;14.63;;;;;;;-0.93;77.09;99641.91;4922817;29;20251;-86
2021/03/10 05:10:36;;;;;;;21.90;14.80;;;;;;;-0.85;76.69;99645.63;4923025;29;20237;-89
2021/03/10 05:13:25;;;;;;;21.30;14.53;;;;;;;-0.98;76.27;99630.19;4884592;29;20222;-85
2021/03/10 05:16:08;;;;;;;21.17;14.93;;;;;;;-0.85;75.66;99656.16;4925126;29;20233;-90
2021/03/10 05:19:05;;;;;;;22.50;15.00;;;;;;;-0.95;75.33;99635.16;4924552;29;20232;-87
2021/03/10 05:21:59;;;;;;;23.90;15.30;;;;;;;-0.91;76.09;99634.72;4913965;29;20313;-81
2021/03/10 05:25:03;;;;;;;21.00;15.00;;;;;;;-0.70;76.46;99654.69;4912990;29;20345;-86
2021/03/10 05:27:51;;;;;;;23.50;16.13;;;;;;;-0.86;76.16;99630.81;4935455;29;20653;-80
2021/03/10 05:30:50;;;;;;;26.30;16.67;;;;;;;-0.73;76.36;99645.28;4950265;29;20229;-84
2021/03/10 05:33:43;;;;;;;29.10;16.10;;;;;;;-0.55;75.61;99666.34;4934505;29;20240;-82
2021/03/10 05:36:36;;;;;;;23.80;16.83;;;;;;;-0.74;76.77;99614.66;4929378;29;20225;-80
2021/03/10 05:39:27;;;;;;;24.93;16.37;;;;;;;-0.59;75.85;99643.94;4936652;29;20233;-79
2021/03/10 05:42:19;;;;;;;21.97;15.83;;;;;;;-0.62;75.80;99647.72;4949094;29;20229;-87
2021/03/10 05:45:13;;;;;;;32.83;19.43;;;;;;;-0.66;75.33;99635.84;4937134;29;20648;-80
2021/03/10 05:48:04;;;;;;;27.87;19.43;;;;;;;-0.69;77.24;99633.47;4921397;29;20225;-79
2021/03/10 05:50:48;;;;;;;27.37;18.77;;;;;;;-0.67;76.45;99638.59;4951033;29;20229;-79
2021/03/10 05:53:57;;;;;;;26.53;18.80;;;;;;;-0.65;76.55;99649.78;4954088;29;20221;-79
2021/03/10 05:56:57;;;;;;;27.67;18.03;;;;;;;-0.67;77.11;99659.66;4941128;29;20221;-80
2021/03/10 05:59:48;;;;;;;27.77;18.60;;;;;;;-0.62;76.69;99658.22;4955266;29;20541;-80
2021/03/10 06:02:59;;;;;;;28.30;18.80;;;;;;;-0.65;77.35;99665.56;4939434;29;20233;-80
2021/03/10 06:06:07;;;;;;;29.23;18.80;;;;;;;-0.66;76.48;99664.78;4954009;29;20222;-80
2021/03/10 06:09:19;;;;;;;30.10;18.83;;;;;;;-0.58;76.13;99667.50;4938474;29;20228;-80
2021/03/10 06:12:09;;;;;;;29.67;20.50;;;;;;;-0.64;75.65;99638.28;4938612;29;20237;-84
2021/03/10 06:15:06;;;;;;;29.77;18.67;;;;;;;-0.42;75.08;99648.38;4949888;29;20244;-85
2021/03/10 06:18:16;;;;;;;30.40;18.73;;;;;;;-0.14;74.98;99646.53;4922464;29;20249;-80
2021/03/10 06:21:27;;;;;;;28.60;19.17;;;;;;;0.23;73.58;99665.63;4952210;29;20229;-80
2021/03/10 06:25:10;;;;;;;31.10;19.17;;;;;;;0.47;72.87;99656.25;4951537;29;20209;-79
2021/03/10 06:28:08;;;;;;;30.73;18.67;;;;;;;0.70;71.55;99674.00;4950589;29;20245;-80
2021/03/10 06:31:30;;;;;;;27.70;19.60;;;;;;;0.60;71.04;99660.13;4952050;29;20173;-80
2021/03/10 06:34:53;;;;;;;29.63;19.13;;;;;;;0.63;71.22;99685.34;4930974;29;20209;-80
2021/03/10 06:37:56;;;;;;;26.53;17.57;;;;;;;0.59;71.76;99686.63;4933270;29;20801;-79
2021/03/10 06:41:21;;;;;;;25.50;17.30;;;;;;;0.51;71.14;99670.78;4949440;29;20302;-80
2021/03/10 06:44:45;;;;;;;25.00;17.10;;;;;;;0.84;70.92;99707.72;4951678;29;20214;-80
2021/03/10 06:48:03;;;;;;;24.27;17.83;;;;;;;1.06;69.79;99703.75;4937770;23;20234;-80
2021/03/10 06:51:04;;;;;;;26.60;17.23;;;;;;;1.25;68.38;99687.69;4934136;29;20222;-79
2021/03/10 06:53:59;;;;;;;24.50;16.67;;;;;;;1.66;65.64;99709.75;4952435;23;20919;-79
2021/03/10 06:57:39;;;;;;;25.40;17.20;;;;;;;1.98;63.39;99690.50;4959892;23;20229;-80
2021/03/10 07:01:17;;;;;;;23.17;16.10;;;;;;;2.28;60.97;99690.88;4952748;23;20320;-79
2021/03/10 07:04:14;;;;;;;21.30;14.43;;;;;;;2.51;60.21;99691.84;4934529;24;20225;-78
2021/03/10 07:07:35;;;;;;;18.83;13.63;;;;;;;2.70;59.52;99694.16;4942716;23;20306;-78
2021/03/10 07:10:37;;;;;;;18.97;13.53;;;;;;;2.90;58.96;99690.13;4956719;23;20221;-79
2021/03/10 07:16:32;;;;;;;19.13;14.00;;;;;;;3.34;58.02;99706.38;4958135;23;20304;-80
2021/03/10 07:19:13;;;;;;;19.73;12.63;;;;;;;3.48;57.26;99686.31;4947772;29;20236;-81
2021/03/10 07:22:04;;;;;;;18.37;13.47;;;;;;;3.71;57.39;99702.25;4949946;29;20261;-83
2021/03/10 07:25:01;;;;;;;19.00;13.63;;;;;;;3.92;56.50;99705.91;4931674;29;20252;-81
2021/03/10 07:27:58;;;;;;;18.57;13.30;;;;;;;3.99;54.76;99692.81;4922318;29;20227;-83
2021/03/10 07:30:52;;;;;;;17.60;13.13;;;;;;;4.33;51.32;99655.25;4920030;29;20253;-82
2021/03/10 07:33:54;;;;;;;16.23;12.37;;;;;;;5.02;49.52;99696.56;4909819;29;20291;-82
2021/03/10 07:36:42;;;;;;;18.53;13.20;;;;;;;4.97;51.00;99711.38;4933900;29;20230;-83
2021/03/10 07:39:30;;;;;;;18.80;13.17;;;;;;;4.76;49.90;99648.38;4904087;29;20230;-82
2021/03/10 07:42:42;;;;;;;18.33;12.90;;;;;;;4.84;49.71;99672.19;4891402;29;20238;-83
2021/03/10 07:45:59;;;;;;;21.70;14.23;;;;;;;5.47;50.63;99714.13;4973145;23;20237;-78
2021/03/10 07:49:18;;;;;;;18.27;13.67;;;;;;;5.67;48.86;99715.22;4948779;23;20222;-78
2021/03/10 07:53:18;;;;;;;21.13;13.30;;;;;;;5.52;48.58;99658.59;4946239;23;20245;-78
2021/03/10 07:56:42;;;;;;;18.13;12.90;;;;;;;5.63;47.94;99729.88;4954465;29;20213;-78
2021/03/10 07:59:38;;;;;;;17.20;12.83;;;;;;;5.96;48.77;99738.28;4942204;29;20244;-79
2021/03/10 08:02:30;;;;;;;20.00;13.10;;;;;;;6.15;47.80;99742.19;4957185;29;20262;-78
2021/03/10 08:05:48;;;;;;;20.57;13.67;;;;;;;6.17;47.39;99740.97;5109301;23;20239;-79
2021/03/10 08:09:03;;;;;;;16.93;13.30;;;;;;;5.39;49.55;99724.03;4994438;23;20181;-78
2021/03/10 08:11:52;;;;;;;17.17;12.80;;;;;;;5.44;50.49;99735.75;4926201;29;20237;-78
2021/03/10 08:15:03;;;;;;;17.10;13.07;;;;;;;5.62;49.63;99743.34;4928129;29;20241;-78
2021/03/10 08:18:27;;;;;;;16.43;12.80;;;;;;;6.30;48.63;99742.13;4946400;29;20206;-78
2021/03/10 08:21:18;;;;;;;17.80;12.97;;;;;;;6.85;46.63;99717.44;4926752;23;20262;-78
2021/03/10 08:24:34;;;;;;;20.00;13.90;;;;;;;7.19;46.36;99748.59;4923328;29;20226;-79
2021/03/10 08:27:27;;;;;;;18.33;13.90;;;;;;;7.41;45.72;99751.03;5001169;23;20217;31
2021/03/10 08:31:02;;;;;;;19.27;13.17;;;;;;;5.96;50.17;99742.78;4881109;29;20231;-78
2021/03/10 08:34:26;;;;;;;18.33;13.67;;;;;;;6.13;49.45;99739.72;4860248;29;20233;-78
2021/03/10 08:37:27;;;;;;;21.53;13.90;;;;;;;6.47;48.75;99747.03;4845913;29;20221;-78
2021/03/10 08:40:28;;;;;;;18.73;13.70;;;;;;;6.48;48.79;99759.31;4862440;29;20235;-78
2021/03/10 08:46:53;;;;;;;15.90;13.07;;;;;;;6.82;47.88;99752.44;4930639;23;20657;-78
2021/03/10 08:50:08;;;;;;;18.40;12.87;;;;;;;6.72;48.77;99738.66;4946378;29;20265;-78
2021/03/10 08:53:27;;;;;;;16.27;13.10;;;;;;;6.12;49.08;99732.72;4949858;23;20251;-79
2021/03/10 08:56:33;;;;;;;19.57;13.07;;;;;;;6.52;49.44;99735.81;4952687;29;20236;-78
2021/03/10 09:02:43;;;;;;;19.70;14.07;;;;;;;5.81;52.12;99748.09;4964956;23;20331;-78
2021/03/10 09:05:49;;;;;;;18.23;13.30;;;;;;;6.26;51.55;99751.50;4955260;29;20257;-78
2021/03/10 09:09:02;;;;;;;17.73;13.27;;;;;;;6.45;50.06;99749.03;4946576;29;20229;-79
2021/03/10 09:12:32;;;;;;;17.03;12.93;;;;;;;6.72;48.62;99735.97;4924728;23;20328;-78
2021/03/10 09:15:57;;;;;;;17.13;12.80;;;;;;;6.14;50.07;99744.03;5001866;23;20465;-77
2021/03/10 09:19:10;;;;;;;17.27;13.63;;;;;;;6.69;49.16;99745.16;4860888;29;20237;-79
2021/03/10 09:22:22;;;;;;;17.67;13.63;;;;;;;5.75;51.82;99735.53;4861100;29;20224;-78
2021/03/10 09:29:07;;;;;;;17.57;13.80;;;;;;;6.07;50.34;99713.03;4858182;29;20238;-80
2021/03/10 09:32:38;;;;;;;18.60;13.23;;;;;;;5.57;50.32;99713.84;4809359;29;20275;-80
2021/03/10 09:35:42;;;;;;;16.30;12.70;;;;;;;5.75;50.75;99735.53;4820204;29;20234;-79
2021/03/10 09:38:41;;;;;;;18.60;13.10;;;;;;;5.49;50.73;99706.81;4824878;29;20211;-78
2021/03/10 09:42:43;;;;;;;17.67;13.60;;;;;;;5.30;51.78;99724.13;4830534;29;20529;-79
2021/03/10 09:45:45;;;;;;;17.33;12.47;;;;;;;5.18;50.30;99720.25;4834860;23;20241;-78
2021/03/10 09:49:15;;;;;;;18.33;12.80;;;;;;;4.74;52.23;99724.72;4918453;23;20228;-80
2021/03/10 09:52:37;;;;;;;16.43;13.60;;;;;;;4.75;52.90;99723.72;4923164;29;20226;-80
2021/03/10 09:55:34;;;;;;;16.57;12.90;;;;;;;5.20;52.37;99710.31;4926766;29;20230;-80
2021/03/10 09:58:29;;;;;;;18.00;13.33;;;;;;;5.81;49.42;99720.69;4929331;29;20261;-80
2021/03/10 10:01:24;;;;;;;17.70;12.97;;;;;;;6.59;46.75;99724.19;4887197;29;20234;-80
2021/03/10 10:04:47;;;;;;;17.10;12.93;;;;;;;7.30;44.70;99721.44;4918514;24;20225;-81
2021/03/10 10:08:18;;;;;;;14.43;12.43;;;;;;;8.06;43.31;99712.34;4948162;23;20225;-80
2021/03/10 10:11:47;;;;;;;16.13;12.50;;;;;;;8.53;39.99;99721.28;4954160;29;20253;-81
2021/03/10 10:15:02;;;;;;;16.40;12.57;;;;;;;8.19;40.59;99715.03;4952072;28;20221;-78
2021/03/10 10:18:10;;;;;;;16.57;13.20;;;;;;;6.90;43.77;99704.38;4947397;23;20268;-80
2021/03/10 10:21:27;;;;;;;15.20;12.47;;;;;;;6.73;43.29;99714.47;4900856;29;20300;-80
2021/03/10 10:24:29;;;;;;;16.20;12.47;;;;;;;7.27;42.66;99701.34;4951827;29;20225;-80
2021/03/10 10:28:27;;;;;;;17.33;13.07;;;;;;;7.04;42.36;99722.09;4956161;29;20212;-80
2021/03/10 10:31:16;;;;;;;16.33;12.27;;;;;;;7.34;41.63;99728.84;4953343;29;20204;-78
2021/03/10 10:34:46;;;;;;;16.77;13.07;;;;;;;7.85;40.10;99723.94;4939967;29;20245;-80
2021/03/10 10:38:08;;;;;;;15.20;13.03;;;;;;;8.29;40.58;99717.31;4958579;23;20220;-80
2021/03/10 10:41:27;;;;;;;15.23;13.20;;;;;;;8.18;40.96;99723.22;4960779;23;20221;-79
2021/03/10 10:44:32;;;;;;;20.03;14.13;;;;;;;8.54;40.38;99678.31;4955552;23;20254;-78
2021/03/10 10:48:03;;;;;;;13.87;12.17;;;;;;;9.71;35.38;99715.75;4914857;29;20210;-81
2021/03/10 10:51:57;;;;;;;13.63;11.00;;;;;;;8.97;37.11;99716.13;4892756;23;20232;-80
2021/03/10 10:55:11;;;;;;;14.70;11.30;;;;;;;9.41;35.93;99710.09;4935350;29;20206;-80
2021/03/10 10:58:45;;;;;;;13.53;10.97;;;;;;;8.89;37.09;99704.84;4945779;29;20245;-79
2021/03/10 11:02:13;;;;;;;12.13;10.33;;;;;;;8.92;36.74;99709.75;4952602;29;20572;-80
2021/03/10 11:06:01;;;;;;;14.43;11.70;;;;;;;8.51;37.52;99696.63;5037145;23;20230;-79
2021/03/10 11:09:22;;;;;;;14.20;11.50;;;;;;;9.78;36.80;99713.06;4916311;29;20227;-80
2021/03/10 11:12:29;;;;;;;13.17;11.57;;;;;;;9.28;38.17;99696.78;4941027;24;20243;-79
2021/03/10 11:16:12;;;;;;;15.80;13.37;;;;;;;8.51;40.65;99646.69;4947878;29;20233;-79
2021/03/10 11:19:25;;;;;;;18.07;13.60;;;;;;;9.11;38.49;99687.53;4950535;29;20253;-80
2021/03/10 11:23:17;;;;;;;16.33;13.97;;;;;;;7.91;40.61;99688.47;4954242;29;20228;-79
2021/03/10 11:26:40;;;;;;;16.20;13.07;;;;;;;7.08;43.16;99689.53;4911353;29;20238;-79
2021/03/10 11:29:46;;;;;;;16.37;13.50;;;;;;;7.28;42.85;99681.63;4898840;29;20227;-79
2021/03/10 11:32:55;;;;;;;16.80;13.23;;;;;;;7.45;42.46;99690.97;5019856;23;20251;-82
2021/03/10 11:35:53;;;;;;;17.33;13.40;;;;;;;7.35;42.53;99666.50;4938733;29;20233;-79
2021/03/10 11:39:22;;;;;;;16.23;13.20;;;;;;;8.32;41.64;99680.38;4967405;23;20229;-79
2021/03/10 11:42:44;;;;;;;16.77;13.20;;;;;;;7.38;42.45;99687.44;4950945;29;20232;-79
2021/03/10 11:45:43;;;;;;;17.03;13.67;;;;;;;8.20;41.48;99671.31;5044350;23;20243;-79
2021/03/10 11:49:01;;;;;;;14.50;12.10;;;;;;;8.78;39.51;99669.69;4937217;29;20768;-79
2021/03/10 11:52:34;;;;;;;19.00;13.50;;;;;;;9.14;39.35;99673.78;5036532;23;20535;-79
2021/03/10 11:56:08;;;;;;;14.13;12.07;;;;;;;9.76;37.58;99662.41;4896928;29;20250;-79
2021/03/10 11:59:40;;;;;;;16.83;13.37;;;;;;;9.98;37.66;99655.72;4935534;23;20327;-77
2021/03/10 12:03:00;;;;;;;16.30;13.20;;;;;;;8.96;38.36;99649.56;4913524;23;20237;-79
2021/03/10 12:06:33;;;;;;;16.83;13.27;;;;;;;9.93;36.47;99657.41;4904119;29;20229;-79
2021/03/10 12:10:16;;;;;;;18.23;13.93;;;;;;;10.31;36.24;99623.38;4917211;23;20233;-79
2021/03/10 12:17:00;;;;;;;16.93;12.37;;;;;;;8.73;38.79;99644.63;4885347;23;20287;-80
2021/03/10 12:19:54;;;;;;;13.13;11.63;;;;;;;8.98;38.45;99648.28;4916393;29;20213;-78
2021/03/10 12:23:10;;;;;;;17.33;13.47;;;;;;;8.43;40.62;99662.09;4888567;29;20230;-78
2021/03/10 12:26:32;;;;;;;16.23;12.37;;;;;;;7.85;40.83;99622.59;4927325;23;20214;-79
2021/03/10 12:29:26;;;;;;;30.13;20.33;;;;;;;8.17;41.09;99647.66;4953326;23;20234;-79
2021/03/10 12:32:36;;;;;;;64.83;46.23;;;;;;;8.10;42.09;99635.34;5062571;23;20257;-78
2021/03/10 12:36:09;;;;;;;19.03;16.70;;;;;;;7.79;41.63;99652.72;4949412;23;20244;-79
2021/03/10 12:38:55;;;;;;;14.67;12.67;;;;;;;7.94;41.66;99650.72;4940638;29;20230;-79
2021/03/10 12:42:13;;;;;;;15.17;12.60;;;;;;;7.71;42.48;99650.25;4954930;29;20229;-78
2021/03/10 12:45:16;;;;;;;16.40;12.33;;;;;;;6.85;44.01;99638.38;4915582;29;20255;-78
2021/03/10 12:47:57;;;;;;;21.57;16.17;;;;;;;7.21;43.42;99651.47;4887975;29;20596;-78
2021/03/10 12:51:57;;;;;;;28.67;22.03;;;;;;;7.31;43.14;99657.28;4953537;23;20233;-79
2021/03/10 12:55:12;;;;;;;15.70;12.80;;;;;;;7.20;43.06;99647.16;4916336;29;20231;-79
2021/03/10 12:58:19;;;;;;;15.13;12.37;;;;;;;6.95;43.07;99614.84;4907801;23;20227;-79
2021/03/10 13:01:51;;;;;;;14.73;11.50;;;;;;;7.30;43.86;99646.81;4925017;29;20297;-78
2021/03/10 13:05:02;;;;;;;14.97;11.57;;;;;;;7.70;43.24;99640.59;4956112;23;20248;-79
2021/03/10 13:08:11;;;;;;;14.07;11.57;;;;;;;7.47;43.02;99642.75;4941055;29;20182;-78
2021/03/10 13:11:35;;;;;;;13.03;11.00;;;;;;;7.45;42.64;99636.81;4978820;23;20232;-78
2021/03/10 13:15:25;;;;;;;15.07;11.60;;;;;;;7.67;43.04;99641.00;4944358;23;20233;-78
2021/03/10 13:18:44;;;;;;;19.73;14.87;;;;;;;8.10;41.48;99638.03;4959465;29;20172;-79
2021/03/10 13:22:08;;;;;;;23.90;19.67;;;;;;;7.84;41.60;99636.09;4917454;29;20246;-78
2021/03/10 13:26:09;;;;;;;14.63;11.53;;;;;;;7.82;41.56;99639.00;4960684;23;20249;-79
2021/03/10 13:29:22;;;;;;;13.80;10.93;;;;;;;7.60;41.12;99620.69;4960350;23;20221;-78
2021/03/10 13:32:56;;;;;;;14.43;11.80;;;;;;;8.20;40.46;99647.28;4941192;23;20244;-78
2021/03/10 13:36:56;;;;;;;13.33;11.03;;;;;;;8.58;40.48;99641.38;4956952;29;20229;-78
2021/03/10 13:40:21;;;;;;;13.47;10.93;;;;;;;8.94;39.40;99641.72;5060209;23;20316;-78
2021/03/10 13:43:47;;;;;;;13.33;11.20;;;;;;;8.66;39.58;99620.59;4978556;23;20236;-79
2021/03/10 13:50:38;;;;;;;14.37;11.40;;;;;;;9.16;39.31;99640.44;4957247;23;20240;-79
2021/03/10 13:54:19;;;;;;;14.27;11.50;;;;;;;9.05;39.90;99643.75;4944118;23;20225;-79
2021/03/10 13:57:53;;;;;;;13.33;11.30;;;;;;;8.99;40.39;99633.91;4934430;29;20194;-80
2021/03/10 14:01:33;;;;;;;14.90;12.63;;;;;;;8.45;40.86;99628.00;4963775;23;20629;-80
2021/03/10 14:05:33;;;;;;;13.57;11.63;;;;;;;8.23;42.28;99638.03;4963098;23;20229;-78
2021/03/10 14:09:00;;;;;;;15.67;12.03;;;;;;;8.03;42.52;99626.50;4899708;29;20172;-79
2021/03/10 14:12:42;;;;;;;13.67;12.03;;;;;;;8.05;42.47;99643.16;4898408;29;20293;-79
2021/03/10 14:16:48;;;;;;;13.20;11.50;;;;;;;7.91;42.55;99644.97;5073101;23;20237;31
2021/03/10 14:20:11;;;;;;;14.87;11.87;;;;;;;7.68;43.45;99655.16;4887800;23;20267;-78
2021/03/10 14:28:08;;;;;;;13.13;11.30;;;;;;;7.42;44.29;99650.53;4976133;23;20264;-79
2021/03/10 14:31:45;;;;;;;14.87;11.90;;;;;;;7.08;45.37;99646.09;4943743;23;20233;-79
2021/03/10 14:35:24;;;;;;;13.60;11.97;;;;;;;7.15;45.77;99654.09;4952348;23;20229;-79
2021/03/10 14:39:49;;;;;;;15.10;12.57;;;;;;;6.44;45.96;99600.22;4971320;23;20217;-78
2021/03/10 14:42:56;;;;;;;15.23;13.17;;;;;;;6.88;46.24;99658.44;4927615;23;20228;-79
2021/03/10 14:46:23;;;;;;;15.30;12.53;;;;;;;6.68;46.71;99630.84;4939560;29;20289;-78
2021/03/10 14:49:44;;;;;;;14.57;12.33;;;;;;;6.62;46.54;99653.78;4936237;29;20226;-79